sensor_id;sensor_type;location;lat;lon;timestamp;P1;durP1;ratioP1;P2;durP2;ratioP2
68457;SDS011;65384;52.016;5.428;2023-05-10T00:01:39;49.08;;;17.13;;
68457;SDS011;65384;52.016;5.428;2023-05-10T00:04:05;44.28;;;16.55;;
68457;SDS011;65384;52.016;5.428;2023-05-10T00:06:30;50.10;;;18.08;;
68457;SDS011;65384;52.016;5.428;2023-05-10T00:08:56;45.65;;;17.00;;
68457;SDS011;65384;52.016;5.428;2023-05-10T00:11:22;50.40;;;17.10;;
68457;SDS011;65384;52.016;5.428;2023-05-10T00:13:47;46.80;;;17.42;;
68457;SDS011;65384;52.016;5.428;2023-05-10T00:16:12;49.70;;;17.35;;
68457;SDS011;65384;52.016;5.428;2023-05-10T00:18:38;49.20;;;18.00;;
68457;SDS011;65384;52.016;5.428;2023-05-10T00:21:04;54.85;;;18.90;;
68457;SDS011;65384;52.016;5.428;2023-05-10T00:23:30;49.60;;;18.90;;
68457;SDS011;65384;52.016;5.428;2023-05-10T00:25:55;51.22;;;18.38;;
68457;SDS011;65384;52.016;5.428;2023-05-10T00:28:21;46.40;;;18.05;;
68457;SDS011;65384;52.016;5.428;2023-05-10T00:30:46;53.45;;;18.17;;
68457;SDS011;65384;52.016;5.428;2023-05-10T00:33:11;52.83;;;18.35;;
68457;SDS011;65384;52.016;5.428;2023-05-10T00:35:37;50.22;;;18.77;;
68457;SDS011;65384;52.016;5.428;2023-05-10T00:38:03;48.63;;;18.70;;
68457;SDS011;65384;52.016;5.428;2023-05-10T00:40:28;48.50;;;17.85;;
68457;SDS011;65384;52.016;5.428;2023-05-10T00:42:55;47.45;;;17.75;;
68457;SDS011;65384;52.016;5.428;2023-05-10T00:45:21;48.33;;;17.10;;
68457;SDS011;65384;52.016;5.428;2023-05-10T00:47:47;51.30;;;18.10;;
68457;SDS011;65384;52.016;5.428;2023-05-10T00:50:13;49.25;;;17.63;;
68457;SDS011;65384;52.016;5.428;2023-05-10T00:52:39;47.35;;;17.30;;
68457;SDS011;65384;52.016;5.428;2023-05-10T00:55:05;51.58;;;16.75;;
68457;SDS011;65384;52.016;5.428;2023-05-10T00:57:31;47.95;;;16.63;;
68457;SDS011;65384;52.016;5.428;2023-05-10T00:59:57;49.63;;;17.08;;
68457;SDS011;65384;52.016;5.428;2023-05-10T01:02:22;47.67;;;16.58;;
68457;SDS011;65384;52.016;5.428;2023-05-10T01:04:48;50.50;;;16.63;;
68457;SDS011;65384;52.016;5.428;2023-05-10T01:07:14;46.83;;;15.98;;
68457;SDS011;65384;52.016;5.428;2023-05-10T01:09:39;42.42;;;15.45;;
68457;SDS011;65384;52.016;5.428;2023-05-10T01:12:04;44.38;;;15.55;;
68457;SDS011;65384;52.016;5.428;2023-05-10T01:14:31;49.33;;;16.20;;
68457;SDS011;65384;52.016;5.428;2023-05-10T01:16:57;45.90;;;15.45;;
68457;SDS011;65384;52.016;5.428;2023-05-10T01:19:23;42.30;;;13.82;;
68457;SDS011;65384;52.016;5.428;2023-05-10T01:24:36;49.83;;;15.05;;
68457;SDS011;65384;52.016;5.428;2023-05-10T01:30:08;48.13;;;15.15;;
68457;SDS011;65384;52.016;5.428;2023-05-10T01:32:48;51.80;;;14.85;;
68457;SDS011;65384;52.016;5.428;2023-05-10T01:38:04;49.15;;;15.80;;
68457;SDS011;65384;52.016;5.428;2023-05-10T01:40:35;56.83;;;16.48;;
68457;SDS011;65384;52.016;5.428;2023-05-10T01:43:08;59.33;;;16.98;;
68457;SDS011;65384;52.016;5.428;2023-05-10T01:45:46;58.72;;;17.08;;
68457;SDS011;65384;52.016;5.428;2023-05-10T01:48:15;61.20;;;17.08;;
68457;SDS011;65384;52.016;5.428;2023-05-10T01:50:43;64.65;;;18.30;;
68457;SDS011;65384;52.016;5.428;2023-05-10T01:53:09;63.53;;;18.13;;
68457;SDS011;65384;52.016;5.428;2023-05-10T01:55:39;62.20;;;18.17;;
68457;SDS011;65384;52.016;5.428;2023-05-10T01:58:09;64.15;;;18.20;;
68457;SDS011;65384;52.016;5.428;2023-05-10T02:00:36;56.25;;;17.52;;
68457;SDS011;65384;52.016;5.428;2023-05-10T02:03:05;66.80;;;18.48;;
68457;SDS011;65384;52.016;5.428;2023-05-10T02:05:31;63.22;;;18.13;;
68457;SDS011;65384;52.016;5.428;2023-05-10T02:07:58;65.25;;;18.48;;
68457;SDS011;65384;52.016;5.428;2023-05-10T02:10:26;63.90;;;18.48;;
68457;SDS011;65384;52.016;5.428;2023-05-10T02:12:52;67.40;;;19.00;;
68457;SDS011;65384;52.016;5.428;2023-05-10T02:15:19;61.35;;;18.27;;
68457;SDS011;65384;52.016;5.428;2023-05-10T02:17:48;63.03;;;18.13;;
68457;SDS011;65384;52.016;5.428;2023-05-10T02:20:14;63.03;;;17.92;;
68457;SDS011;65384;52.016;5.428;2023-05-10T02:22:41;65.28;;;19.15;;
68457;SDS011;65384;52.016;5.428;2023-05-10T02:25:07;60.50;;;19.15;;
68457;SDS011;65384;52.016;5.428;2023-05-10T02:27:34;62.88;;;19.15;;
68457;SDS011;65384;52.016;5.428;2023-05-10T02:29:59;61.80;;;18.65;;
68457;SDS011;65384;52.016;5.428;2023-05-10T02:32:26;59.50;;;19.15;;
68457;SDS011;65384;52.016;5.428;2023-05-10T02:34:52;63.78;;;19.33;;
68457;SDS011;65384;52.016;5.428;2023-05-10T02:37:18;61.72;;;18.60;;
68457;SDS011;65384;52.016;5.428;2023-05-10T02:39:46;59.33;;;18.92;;
68457;SDS011;65384;52.016;5.428;2023-05-10T02:42:13;59.35;;;19.10;;
68457;SDS011;65384;52.016;5.428;2023-05-10T02:44:42;57.38;;;18.55;;
68457;SDS011;65384;52.016;5.428;2023-05-10T02:47:08;56.47;;;18.58;;
68457;SDS011;65384;52.016;5.428;2023-05-10T02:49:33;58.53;;;19.05;;
68457;SDS011;65384;52.016;5.428;2023-05-10T02:52:00;60.70;;;19.58;;
68457;SDS011;65384;52.016;5.428;2023-05-10T02:54:30;67.28;;;19.67;;
68457;SDS011;65384;52.016;5.428;2023-05-10T02:56:57;67.20;;;20.40;;
68457;SDS011;65384;52.016;5.428;2023-05-10T02:59:26;70.65;;;19.98;;
68457;SDS011;65384;52.016;5.428;2023-05-10T03:01:52;69.05;;;20.10;;
68457;SDS011;65384;52.016;5.428;2023-05-10T03:04:17;70.72;;;20.77;;
68457;SDS011;65384;52.016;5.428;2023-05-10T03:06:43;66.38;;;20.15;;
68457;SDS011;65384;52.016;5.428;2023-05-10T03:09:08;70.85;;;20.77;;
68457;SDS011;65384;52.016;5.428;2023-05-10T03:11:39;68.38;;;20.35;;
68457;SDS011;65384;52.016;5.428;2023-05-10T03:19:56;72.20;;;20.80;;
68457;SDS011;65384;52.016;5.428;2023-05-10T03:22:39;68.38;;;20.52;;
68457;SDS011;65384;52.016;5.428;2023-05-10T03:25:06;66.53;;;21.00;;
68457;SDS011;65384;52.016;5.428;2023-05-10T03:27:33;69.60;;;20.60;;
68457;SDS011;65384;52.016;5.428;2023-05-10T03:30:01;67.47;;;21.17;;
68457;SDS011;65384;52.016;5.428;2023-05-10T03:32:26;75.07;;;21.25;;
68457;SDS011;65384;52.016;5.428;2023-05-10T03:34:54;71.20;;;20.55;;
68457;SDS011;65384;52.016;5.428;2023-05-10T03:37:19;72.32;;;21.15;;
68457;SDS011;65384;52.016;5.428;2023-05-10T03:39:44;71.85;;;20.25;;
68457;SDS011;65384;52.016;5.428;2023-05-10T03:42:10;65.07;;;19.55;;
68457;SDS011;65384;52.016;5.428;2023-05-10T03:44:36;70.32;;;19.75;;
68457;SDS011;65384;52.016;5.428;2023-05-10T03:47:03;67.85;;;18.98;;
68457;SDS011;65384;52.016;5.428;2023-05-10T03:49:28;66.13;;;19.42;;
68457;SDS011;65384;52.016;5.428;2023-05-10T03:51:54;65.43;;;18.85;;
68457;SDS011;65384;52.016;5.428;2023-05-10T03:54:19;64.40;;;19.00;;
68457;SDS011;65384;52.016;5.428;2023-05-10T03:56:45;60.20;;;18.02;;
68457;SDS011;65384;52.016;5.428;2023-05-10T03:59:12;61.22;;;18.23;;
68457;SDS011;65384;52.016;5.428;2023-05-10T04:01:38;59.10;;;18.63;;
68457;SDS011;65384;52.016;5.428;2023-05-10T04:04:03;55.10;;;16.58;;
68457;SDS011;65384;52.016;5.428;2023-05-10T04:06:28;55.80;;;16.25;;
68457;SDS011;65384;52.016;5.428;2023-05-10T04:08:54;57.25;;;16.92;;
68457;SDS011;65384;52.016;5.428;2023-05-10T04:11:20;57.28;;;16.40;;
68457;SDS011;65384;52.016;5.428;2023-05-10T04:13:46;63.88;;;16.52;;
68457;SDS011;65384;52.016;5.428;2023-05-10T04:16:12;63.33;;;16.17;;
68457;SDS011;65384;52.016;5.428;2023-05-10T04:18:37;62.70;;;16.10;;
68457;SDS011;65384;52.016;5.428;2023-05-10T04:21:04;59.15;;;16.05;;
68457;SDS011;65384;52.016;5.428;2023-05-10T04:23:29;62.25;;;16.02;;
68457;SDS011;65384;52.016;5.428;2023-05-10T04:26:01;65.43;;;16.23;;
68457;SDS011;65384;52.016;5.428;2023-05-10T04:28:26;62.70;;;16.33;;
68457;SDS011;65384;52.016;5.428;2023-05-10T04:30:52;61.45;;;17.15;;
68457;SDS011;65384;52.016;5.428;2023-05-10T04:33:17;70.65;;;17.98;;
68457;SDS011;65384;52.016;5.428;2023-05-10T04:35:42;64.20;;;16.20;;
68457;SDS011;65384;52.016;5.428;2023-05-10T04:38:09;63.97;;;17.27;;
68457;SDS011;65384;52.016;5.428;2023-05-10T04:40:35;65.82;;;16.70;;
68457;SDS011;65384;52.016;5.428;2023-05-10T04:43:00;64.38;;;17.17;;
68457;SDS011;65384;52.016;5.428;2023-05-10T04:45:26;60.30;;;16.42;;
68457;SDS011;65384;52.016;5.428;2023-05-10T04:47:51;58.35;;;16.58;;
68457;SDS011;65384;52.016;5.428;2023-05-10T04:50:16;64.93;;;17.50;;
68457;SDS011;65384;52.016;5.428;2023-05-10T04:52:42;67.72;;;18.50;;
68457;SDS011;65384;52.016;5.428;2023-05-10T04:55:07;55.33;;;17.27;;
68457;SDS011;65384;52.016;5.428;2023-05-10T04:57:34;62.75;;;18.67;;
68457;SDS011;65384;52.016;5.428;2023-05-10T04:59:59;61.58;;;19.50;;
68457;SDS011;65384;52.016;5.428;2023-05-10T05:02:25;73.22;;;20.92;;
68457;SDS011;65384;52.016;5.428;2023-05-10T05:04:50;71.53;;;19.35;;
68457;SDS011;65384;52.016;5.428;2023-05-10T05:07:16;66.00;;;18.90;;
68457;SDS011;65384;52.016;5.428;2023-05-10T05:09:41;63.65;;;18.33;;
68457;SDS011;65384;52.016;5.428;2023-05-10T05:12:06;63.17;;;18.90;;
68457;SDS011;65384;52.016;5.428;2023-05-10T05:14:32;64.15;;;18.52;;
68457;SDS011;65384;52.016;5.428;2023-05-10T05:16:57;58.22;;;18.65;;
68457;SDS011;65384;52.016;5.428;2023-05-10T05:19:22;67.60;;;20.98;;
68457;SDS011;65384;52.016;5.428;2023-05-10T05:21:48;65.55;;;19.60;;
68457;SDS011;65384;52.016;5.428;2023-05-10T05:24:13;66.47;;;18.80;;
68457;SDS011;65384;52.016;5.428;2023-05-10T05:26:38;65.03;;;19.20;;
68457;SDS011;65384;52.016;5.428;2023-05-10T05:29:04;57.25;;;16.83;;
68457;SDS011;65384;52.016;5.428;2023-05-10T05:31:29;61.45;;;18.63;;
68457;SDS011;65384;52.016;5.428;2023-05-10T05:33:55;61.83;;;18.40;;
68457;SDS011;65384;52.016;5.428;2023-05-10T05:36:20;68.57;;;19.23;;
68457;SDS011;65384;52.016;5.428;2023-05-10T05:38:46;64.57;;;18.60;;
68457;SDS011;65384;52.016;5.428;2023-05-10T05:41:11;63.13;;;18.73;;
68457;SDS011;65384;52.016;5.428;2023-05-10T05:43:37;66.45;;;18.90;;
68457;SDS011;65384;52.016;5.428;2023-05-10T05:46:02;73.47;;;20.08;;
68457;SDS011;65384;52.016;5.428;2023-05-10T05:48:29;72.30;;;19.45;;
68457;SDS011;65384;52.016;5.428;2023-05-10T05:50:55;69.95;;;18.95;;
68457;SDS011;65384;52.016;5.428;2023-05-10T05:53:21;69.85;;;19.23;;
68457;SDS011;65384;52.016;5.428;2023-05-10T05:55:53;64.50;;;18.73;;
68457;SDS011;65384;52.016;5.428;2023-05-10T05:58:19;72.47;;;19.23;;
68457;SDS011;65384;52.016;5.428;2023-05-10T06:00:45;76.50;;;19.95;;
68457;SDS011;65384;52.016;5.428;2023-05-10T06:03:10;73.57;;;21.27;;
68457;SDS011;65384;52.016;5.428;2023-05-10T06:05:36;81.75;;;20.95;;
68457;SDS011;65384;52.016;5.428;2023-05-10T06:08:01;73.03;;;20.98;;
68457;SDS011;65384;52.016;5.428;2023-05-10T06:15:43;80.90;;;22.23;;
68457;SDS011;65384;52.016;5.428;2023-05-10T06:18:09;75.18;;;21.70;;
68457;SDS011;65384;52.016;5.428;2023-05-10T06:23:37;75.53;;;21.98;;
68457;SDS011;65384;52.016;5.428;2023-05-10T06:26:02;70.05;;;21.23;;
68457;SDS011;65384;52.016;5.428;2023-05-10T06:28:28;79.90;;;22.42;;
68457;SDS011;65384;52.016;5.428;2023-05-10T06:30:53;71.43;;;20.95;;
68457;SDS011;65384;52.016;5.428;2023-05-10T06:33:18;83.55;;;25.15;;
68457;SDS011;65384;52.016;5.428;2023-05-10T06:35:44;73.60;;;21.38;;
68457;SDS011;65384;52.016;5.428;2023-05-10T06:38:09;75.38;;;21.90;;
68457;SDS011;65384;52.016;5.428;2023-05-10T06:40:34;70.45;;;22.67;;
68457;SDS011;65384;52.016;5.428;2023-05-10T06:43:00;73.20;;;21.88;;
68457;SDS011;65384;52.016;5.428;2023-05-10T06:45:26;73.68;;;21.05;;
68457;SDS011;65384;52.016;5.428;2023-05-10T06:47:51;75.78;;;23.08;;
68457;SDS011;65384;52.016;5.428;2023-05-10T06:50:16;74.60;;;21.65;;
68457;SDS011;65384;52.016;5.428;2023-05-10T06:52:42;73.13;;;21.08;;
68457;SDS011;65384;52.016;5.428;2023-05-10T06:55:07;66.65;;;21.13;;
68457;SDS011;65384;52.016;5.428;2023-05-10T06:57:33;66.65;;;20.15;;
68457;SDS011;65384;52.016;5.428;2023-05-10T06:59:59;63.55;;;21.23;;
68457;SDS011;65384;52.016;5.428;2023-05-10T07:02:24;73.07;;;19.90;;
68457;SDS011;65384;52.016;5.428;2023-05-10T07:04:50;63.47;;;18.02;;
68457;SDS011;65384;52.016;5.428;2023-05-10T07:07:16;62.78;;;18.80;;
68457;SDS011;65384;52.016;5.428;2023-05-10T07:09:42;59.50;;;17.55;;
68457;SDS011;65384;52.016;5.428;2023-05-10T07:12:07;49.80;;;15.10;;
68457;SDS011;65384;52.016;5.428;2023-05-10T07:14:32;49.58;;;16.23;;
68457;SDS011;65384;52.016;5.428;2023-05-10T07:16:58;53.50;;;16.23;;
68457;SDS011;65384;52.016;5.428;2023-05-10T07:19:23;51.78;;;15.93;;
68457;SDS011;65384;52.016;5.428;2023-05-10T07:21:48;44.50;;;14.48;;
68457;SDS011;65384;52.016;5.428;2023-05-10T07:24:14;43.33;;;14.15;;
68457;SDS011;65384;52.016;5.428;2023-05-10T07:26:39;42.70;;;14.02;;
68457;SDS011;65384;52.016;5.428;2023-05-10T07:29:05;42.13;;;13.27;;
68457;SDS011;65384;52.016;5.428;2023-05-10T07:31:30;40.42;;;12.85;;
68457;SDS011;65384;52.016;5.428;2023-05-10T07:33:55;30.95;;;11.13;;
68457;SDS011;65384;52.016;5.428;2023-05-10T07:36:21;35.33;;;11.32;;
68457;SDS011;65384;52.016;5.428;2023-05-10T07:38:46;27.40;;;9.25;;
68457;SDS011;65384;52.016;5.428;2023-05-10T07:41:12;20.98;;;8.13;;
68457;SDS011;65384;52.016;5.428;2023-05-10T07:43:37;22.17;;;7.72;;
68457;SDS011;65384;52.016;5.428;2023-05-10T07:46:02;22.38;;;7.63;;
68457;SDS011;65384;52.016;5.428;2023-05-10T07:48:28;17.75;;;7.00;;
68457;SDS011;65384;52.016;5.428;2023-05-10T07:50:53;19.17;;;7.20;;
68457;SDS011;65384;52.016;5.428;2023-05-10T07:53:19;17.83;;;6.28;;
68457;SDS011;65384;52.016;5.428;2023-05-10T07:55:44;18.55;;;6.80;;
68457;SDS011;65384;52.016;5.428;2023-05-10T07:58:15;17.27;;;5.95;;
68457;SDS011;65384;52.016;5.428;2023-05-10T08:00:40;13.35;;;5.60;;
68457;SDS011;65384;52.016;5.428;2023-05-10T08:03:06;14.18;;;5.57;;
68457;SDS011;65384;52.016;5.428;2023-05-10T08:05:31;13.10;;;5.60;;
68457;SDS011;65384;52.016;5.428;2023-05-10T08:07:56;18.38;;;6.00;;
68457;SDS011;65384;52.016;5.428;2023-05-10T08:10:22;15.77;;;6.53;;
68457;SDS011;65384;52.016;5.428;2023-05-10T08:12:47;18.33;;;6.68;;
68457;SDS011;65384;52.016;5.428;2023-05-10T08:15:13;14.63;;;6.38;;
68457;SDS011;65384;52.016;5.428;2023-05-10T08:17:38;15.48;;;6.68;;
68457;SDS011;65384;52.016;5.428;2023-05-10T08:20:04;16.92;;;6.43;;
68457;SDS011;65384;52.016;5.428;2023-05-10T08:22:30;14.88;;;6.10;;
68457;SDS011;65384;52.016;5.428;2023-05-10T08:24:55;17.63;;;6.15;;
68457;SDS011;65384;52.016;5.428;2023-05-10T08:27:21;13.52;;;5.97;;
68457;SDS011;65384;52.016;5.428;2023-05-10T08:29:46;14.25;;;5.70;;
68457;SDS011;65384;52.016;5.428;2023-05-10T08:32:12;14.60;;;6.00;;
68457;SDS011;65384;52.016;5.428;2023-05-10T08:34:37;14.20;;;5.63;;
68457;SDS011;65384;52.016;5.428;2023-05-10T08:37:03;16.40;;;5.50;;
68457;SDS011;65384;52.016;5.428;2023-05-10T08:39:28;13.25;;;5.78;;
68457;SDS011;65384;52.016;5.428;2023-05-10T08:41:54;14.43;;;6.25;;
68457;SDS011;65384;52.016;5.428;2023-05-10T08:44:22;14.30;;;5.90;;
68457;SDS011;65384;52.016;5.428;2023-05-10T08:46:48;14.63;;;5.90;;
68457;SDS011;65384;52.016;5.428;2023-05-10T08:49:17;13.90;;;5.45;;
68457;SDS011;65384;52.016;5.428;2023-05-10T08:51:43;14.93;;;5.78;;
68457;SDS011;65384;52.016;5.428;2023-05-10T08:54:14;13.82;;;6.32;;
68457;SDS011;65384;52.016;5.428;2023-05-10T08:56:40;14.27;;;6.47;;
68457;SDS011;65384;52.016;5.428;2023-05-10T08:59:06;16.30;;;6.28;;
68457;SDS011;65384;52.016;5.428;2023-05-10T09:01:31;16.90;;;6.22;;
68457;SDS011;65384;52.016;5.428;2023-05-10T09:03:57;14.15;;;6.43;;
68457;SDS011;65384;52.016;5.428;2023-05-10T09:06:23;13.93;;;5.97;;
68457;SDS011;65384;52.016;5.428;2023-05-10T09:08:48;19.08;;;8.60;;
68457;SDS011;65384;52.016;5.428;2023-05-10T09:11:14;25.67;;;11.40;;
68457;SDS011;65384;52.016;5.428;2023-05-10T09:13:40;14.63;;;6.10;;
68457;SDS011;65384;52.016;5.428;2023-05-10T09:16:05;16.90;;;6.40;;
68457;SDS011;65384;52.016;5.428;2023-05-10T09:18:31;12.75;;;5.68;;
68457;SDS011;65384;52.016;5.428;2023-05-10T09:20:56;14.30;;;6.32;;
68457;SDS011;65384;52.016;5.428;2023-05-10T09:23:21;14.98;;;6.13;;
68457;SDS011;65384;52.016;5.428;2023-05-10T09:25:47;14.02;;;6.15;;
68457;SDS011;65384;52.016;5.428;2023-05-10T09:28:12;15.00;;;5.57;;
68457;SDS011;65384;52.016;5.428;2023-05-10T09:30:38;16.10;;;5.82;;
68457;SDS011;65384;52.016;5.428;2023-05-10T09:33:04;15.80;;;6.22;;
68457;SDS011;65384;52.016;5.428;2023-05-10T09:35:30;15.77;;;6.55;;
68457;SDS011;65384;52.016;5.428;2023-05-10T09:38:02;18.85;;;6.13;;
68457;SDS011;65384;52.016;5.428;2023-05-10T09:40:29;15.10;;;6.60;;
68457;SDS011;65384;52.016;5.428;2023-05-10T09:45:20;15.85;;;6.22;;
68457;SDS011;65384;52.016;5.428;2023-05-10T09:47:46;17.67;;;6.45;;
68457;SDS011;65384;52.016;5.428;2023-05-10T09:50:12;13.32;;;5.55;;
68457;SDS011;65384;52.016;5.428;2023-05-10T09:52:53;11.90;;;5.72;;
68457;SDS011;65384;52.016;5.428;2023-05-10T09:55:24;13.23;;;5.68;;
68457;SDS011;65384;52.016;5.428;2023-05-10T09:58:14;13.77;;;5.70;;
68457;SDS011;65384;52.016;5.428;2023-05-10T10:00:40;13.45;;;5.80;;
68457;SDS011;65384;52.016;5.428;2023-05-10T10:03:07;11.85;;;5.25;;
68457;SDS011;65384;52.016;5.428;2023-05-10T10:05:39;12.55;;;5.63;;
68457;SDS011;65384;52.016;5.428;2023-05-10T10:08:05;15.75;;;5.43;;
68457;SDS011;65384;52.016;5.428;2023-05-10T10:10:31;12.95;;;5.43;;
68457;SDS011;65384;52.016;5.428;2023-05-10T10:12:58;17.65;;;5.85;;
68457;SDS011;65384;52.016;5.428;2023-05-10T10:15:24;12.65;;;5.32;;
68457;SDS011;65384;52.016;5.428;2023-05-10T10:17:51;14.18;;;5.82;;
68457;SDS011;65384;52.016;5.428;2023-05-10T10:20:17;12.27;;;5.78;;
68457;SDS011;65384;52.016;5.428;2023-05-10T10:22:43;12.43;;;5.45;;
68457;SDS011;65384;52.016;5.428;2023-05-10T10:25:10;10.68;;;5.30;;
68457;SDS011;65384;52.016;5.428;2023-05-10T10:27:40;14.25;;;5.32;;
68457;SDS011;65384;52.016;5.428;2023-05-10T10:35:37;11.73;;;6.00;;
68457;SDS011;65384;52.016;5.428;2023-05-10T10:38:03;12.65;;;5.13;;
68457;SDS011;65384;52.016;5.428;2023-05-10T10:42:55;12.43;;;5.28;;
68457;SDS011;65384;52.016;5.428;2023-05-10T10:45:21;13.45;;;6.00;;
68457;SDS011;65384;52.016;5.428;2023-05-10T10:47:47;12.63;;;5.60;;
68457;SDS011;65384;52.016;5.428;2023-05-10T10:50:13;11.35;;;5.28;;
68457;SDS011;65384;52.016;5.428;2023-05-10T10:52:42;14.45;;;5.03;;
68457;SDS011;65384;52.016;5.428;2023-05-10T10:55:12;13.38;;;5.57;;
68457;SDS011;65384;52.016;5.428;2023-05-10T10:57:53;11.75;;;6.05;;
68457;SDS011;65384;52.016;5.428;2023-05-10T11:00:31;12.75;;;5.57;;
68457;SDS011;65384;52.016;5.428;2023-05-10T11:05:47;12.43;;;5.40;;
68457;SDS011;65384;52.016;5.428;2023-05-10T11:10:49;12.60;;;5.43;;
68457;SDS011;65384;52.016;5.428;2023-05-10T11:15:52;11.77;;;5.38;;
68457;SDS011;65384;52.016;5.428;2023-05-10T11:18:19;12.05;;;4.95;;
68457;SDS011;65384;52.016;5.428;2023-05-10T11:20:49;11.90;;;5.13;;
68457;SDS011;65384;52.016;5.428;2023-05-10T11:23:15;10.75;;;5.28;;
68457;SDS011;65384;52.016;5.428;2023-05-10T11:25:43;11.10;;;4.95;;
68457;SDS011;65384;52.016;5.428;2023-05-10T11:28:11;12.45;;;5.15;;
68457;SDS011;65384;52.016;5.428;2023-05-10T11:30:38;9.07;;;4.50;;
68457;SDS011;65384;52.016;5.428;2023-05-10T11:33:04;11.88;;;5.13;;
68457;SDS011;65384;52.016;5.428;2023-05-10T11:35:30;11.52;;;5.28;;
68457;SDS011;65384;52.016;5.428;2023-05-10T11:37:55;11.32;;;5.25;;
68457;SDS011;65384;52.016;5.428;2023-05-10T11:40:21;11.07;;;4.57;;
68457;SDS011;65384;52.016;5.428;2023-05-10T11:42:49;9.77;;;4.63;;
68457;SDS011;65384;52.016;5.428;2023-05-10T11:45:15;8.77;;;4.47;;
68457;SDS011;65384;52.016;5.428;2023-05-10T11:47:40;8.13;;;4.18;;
68457;SDS011;65384;52.016;5.428;2023-05-10T11:50:08;9.05;;;4.35;;
68457;SDS011;65384;52.016;5.428;2023-05-10T11:52:37;7.70;;;4.63;;
68457;SDS011;65384;52.016;5.428;2023-05-10T11:55:02;6.38;;;3.97;;
68457;SDS011;65384;52.016;5.428;2023-05-10T11:57:28;8.38;;;4.43;;
68457;SDS011;65384;52.016;5.428;2023-05-10T11:59:54;9.13;;;4.03;;
68457;SDS011;65384;52.016;5.428;2023-05-10T12:02:20;9.45;;;3.80;;
68457;SDS011;65384;52.016;5.428;2023-05-10T12:04:45;8.43;;;3.55;;
68457;SDS011;65384;52.016;5.428;2023-05-10T12:07:11;11.10;;;3.70;;
68457;SDS011;65384;52.016;5.428;2023-05-10T12:09:36;9.18;;;3.90;;
68457;SDS011;65384;52.016;5.428;2023-05-10T12:12:02;7.13;;;3.22;;
68457;SDS011;65384;52.016;5.428;2023-05-10T12:14:27;6.22;;;3.53;;
68457;SDS011;65384;52.016;5.428;2023-05-10T12:16:53;7.28;;;3.50;;
68457;SDS011;65384;52.016;5.428;2023-05-10T12:19:19;4.88;;;3.13;;
68457;SDS011;65384;52.016;5.428;2023-05-10T12:21:46;6.75;;;3.17;;
68457;SDS011;65384;52.016;5.428;2023-05-10T12:24:12;7.25;;;3.30;;
68457;SDS011;65384;52.016;5.428;2023-05-10T12:26:37;6.72;;;2.92;;
68457;SDS011;65384;52.016;5.428;2023-05-10T12:29:16;5.95;;;3.20;;
68457;SDS011;65384;52.016;5.428;2023-05-10T12:31:55;6.55;;;2.97;;
68457;SDS011;65384;52.016;5.428;2023-05-10T12:34:25;5.45;;;2.90;;
68457;SDS011;65384;52.016;5.428;2023-05-10T12:36:54;10.40;;;3.17;;
68457;SDS011;65384;52.016;5.428;2023-05-10T12:39:20;6.38;;;3.30;;
68457;SDS011;65384;52.016;5.428;2023-05-10T12:41:45;6.43;;;3.10;;
68457;SDS011;65384;52.016;5.428;2023-05-10T12:44:10;7.85;;;3.30;;
68457;SDS011;65384;52.016;5.428;2023-05-10T12:46:36;5.57;;;3.00;;
68457;SDS011;65384;52.016;5.428;2023-05-10T12:49:02;8.95;;;4.88;;
68457;SDS011;65384;52.016;5.428;2023-05-10T12:51:27;12.60;;;6.60;;
68457;SDS011;65384;52.016;5.428;2023-05-10T12:53:52;20.13;;;8.20;;
68457;SDS011;65384;52.016;5.428;2023-05-10T12:56:18;14.98;;;7.75;;
68457;SDS011;65384;52.016;5.428;2023-05-10T12:58:43;13.57;;;6.28;;
68457;SDS011;65384;52.016;5.428;2023-05-10T13:01:12;15.13;;;6.70;;
68457;SDS011;65384;52.016;5.428;2023-05-10T13:03:38;13.43;;;6.03;;
68457;SDS011;65384;52.016;5.428;2023-05-10T13:06:04;14.48;;;5.47;;
68457;SDS011;65384;52.016;5.428;2023-05-10T13:08:30;9.57;;;5.43;;
68457;SDS011;65384;52.016;5.428;2023-05-10T13:10:58;11.65;;;5.20;;
68457;SDS011;65384;52.016;5.428;2023-05-10T13:13:24;8.57;;;4.50;;
68457;SDS011;65384;52.016;5.428;2023-05-10T13:15:49;8.88;;;4.95;;
68457;SDS011;65384;52.016;5.428;2023-05-10T13:18:15;8.43;;;4.93;;
68457;SDS011;65384;52.016;5.428;2023-05-10T13:20:40;8.45;;;4.68;;
68457;SDS011;65384;52.016;5.428;2023-05-10T13:23:05;10.80;;;4.93;;
68457;SDS011;65384;52.016;5.428;2023-05-10T13:25:31;11.05;;;5.75;;
68457;SDS011;65384;52.016;5.428;2023-05-10T13:27:56;11.48;;;6.25;;
68457;SDS011;65384;52.016;5.428;2023-05-10T13:30:21;13.35;;;6.50;;
68457;SDS011;65384;52.016;5.428;2023-05-10T13:32:48;13.77;;;7.60;;
68457;SDS011;65384;52.016;5.428;2023-05-10T13:35:14;15.65;;;6.57;;
68457;SDS011;65384;52.016;5.428;2023-05-10T13:37:39;14.73;;;6.57;;
68457;SDS011;65384;52.016;5.428;2023-05-10T13:40:05;12.88;;;6.00;;
68457;SDS011;65384;52.016;5.428;2023-05-10T13:42:31;15.05;;;6.50;;
68457;SDS011;65384;52.016;5.428;2023-05-10T13:44:58;12.38;;;5.40;;
68457;SDS011;65384;52.016;5.428;2023-05-10T13:47:24;13.07;;;5.57;;
68457;SDS011;65384;52.016;5.428;2023-05-10T13:49:49;13.10;;;5.75;;
68457;SDS011;65384;52.016;5.428;2023-05-10T13:52:14;10.50;;;4.72;;
68457;SDS011;65384;52.016;5.428;2023-05-10T13:54:40;12.88;;;5.10;;
68457;SDS011;65384;52.016;5.428;2023-05-10T13:57:05;12.40;;;5.00;;
68457;SDS011;65384;52.016;5.428;2023-05-10T13:59:31;11.20;;;4.90;;
68457;SDS011;65384;52.016;5.428;2023-05-10T14:02:00;13.30;;;5.35;;
68457;SDS011;65384;52.016;5.428;2023-05-10T14:04:27;13.07;;;5.28;;
68457;SDS011;65384;52.016;5.428;2023-05-10T14:06:53;14.90;;;4.95;;
68457;SDS011;65384;52.016;5.428;2023-05-10T14:09:18;14.73;;;5.32;;
68457;SDS011;65384;52.016;5.428;2023-05-10T14:11:44;13.40;;;5.60;;
68457;SDS011;65384;52.016;5.428;2023-05-10T14:14:10;13.70;;;5.68;;
68457;SDS011;65384;52.016;5.428;2023-05-10T14:16:36;13.57;;;5.43;;
68457;SDS011;65384;52.016;5.428;2023-05-10T14:19:01;15.13;;;5.85;;
68457;SDS011;65384;52.016;5.428;2023-05-10T14:21:27;16.45;;;5.72;;
68457;SDS011;65384;52.016;5.428;2023-05-10T14:23:54;15.77;;;5.82;;
68457;SDS011;65384;52.016;5.428;2023-05-10T14:26:20;13.43;;;5.18;;
68457;SDS011;65384;52.016;5.428;2023-05-10T14:28:46;14.70;;;5.80;;
68457;SDS011;65384;52.016;5.428;2023-05-10T14:31:11;16.83;;;5.95;;
68457;SDS011;65384;52.016;5.428;2023-05-10T14:33:37;15.90;;;5.80;;
68457;SDS011;65384;52.016;5.428;2023-05-10T14:36:02;13.98;;;5.97;;
68457;SDS011;65384;52.016;5.428;2023-05-10T14:38:28;15.80;;;5.85;;
68457;SDS011;65384;52.016;5.428;2023-05-10T14:40:54;17.38;;;6.65;;
68457;SDS011;65384;52.016;5.428;2023-05-10T14:43:20;20.83;;;6.38;;
68457;SDS011;65384;52.016;5.428;2023-05-10T14:45:45;17.92;;;6.40;;
68457;SDS011;65384;52.016;5.428;2023-05-10T14:48:11;17.30;;;6.07;;
68457;SDS011;65384;52.016;5.428;2023-05-10T14:50:40;17.33;;;6.65;;
68457;SDS011;65384;52.016;5.428;2023-05-10T14:53:05;17.55;;;6.57;;
68457;SDS011;65384;52.016;5.428;2023-05-10T14:55:31;17.23;;;6.65;;
68457;SDS011;65384;52.016;5.428;2023-05-10T14:57:57;18.33;;;6.82;;
68457;SDS011;65384;52.016;5.428;2023-05-10T15:00:23;14.43;;;6.40;;
68457;SDS011;65384;52.016;5.428;2023-05-10T15:02:48;18.00;;;6.90;;
68457;SDS011;65384;52.016;5.428;2023-05-10T15:05:14;19.23;;;7.45;;